Time;durP1;ratioP1;P1;durP2;ratioP2;P2;SDS_P1;SDS_P2;PMS_P1;PMS_P2;Temp;Humidity;BMP_temperature;BMP_pressure;BME280_temperature;BME280_humidity;BME280_pressure;Samples;Min_cycle;Max_cycle;Signal;HPM_P1;HPM_P2
2023/12/14 00:00:35;;;;;;;18.33;12.57;;;;;;;6.25;100.00;100860.47;6156788;23;20036;-76
2023/12/14 00:03:01;;;;;;;17.58;11.95;;;;;;;6.16;100.00;100850.63;6156533;23;20005;-75
2023/12/14 00:05:26;;;;;;;19.73;13.50;;;;;;;6.24;100.00;100872.47;6156507;23;20013;-76
2023/12/14 00:07:51;;;;;;;22.10;13.65;;;;;;;6.22;100.00;100876.00;6156386;23;20077;-76
2023/12/14 00:10:20;;;;;;;20.25;13.88;;;;;;;6.08;100.00;100863.78;6156067;23;20008;-76
2023/12/14 00:12:45;;;;;;;19.83;13.75;;;;;;;6.19;100.00;100889.78;6156225;23;20037;-77
2023/12/14 00:15:10;;;;;;;23.77;16.67;;;;;;;6.13;100.00;100887.50;6156728;23;20001;-77
2023/12/14 00:17:36;;;;;;;24.05;15.90;;;;;;;6.10;100.00;100902.19;6156517;23;20016;-76
2023/12/14 00:20:02;;;;;;;26.23;16.27;;;;;;;6.06;100.00;100909.16;6156307;23;20080;-76
2023/12/14 00:22:27;;;;;;;25.67;16.85;;;;;;;6.05;100.00;100915.19;6156519;23;20001;-75
2023/12/14 00:24:53;;;;;;;25.55;16.80;;;;;;;5.94;100.00;100905.41;6155807;23;20009;-77
2023/12/14 00:27:18;;;;;;;24.98;16.63;;;;;;;5.95;100.00;100924.16;6156045;23;20001;-76
2023/12/14 00:29:43;;;;;;;25.27;16.70;;;;;;;5.95;100.00;100932.69;6156563;23;20037;-76
2023/12/14 00:32:09;;;;;;;26.85;17.80;;;;;;;5.97;100.00;100932.63;6155977;23;20016;-76
2023/12/14 00:34:34;;;;;;;29.65;18.33;;;;;;;5.95;100.00;100945.50;6156207;23;20002;-77
2023/12/14 00:37:00;;;;;;;28.17;18.23;;;;;;;5.93;100.00;100946.47;6155684;23;20001;-77
2023/12/14 00:39:25;;;;;;;30.40;18.60;;;;;;;5.94;100.00;100959.22;6156283;23;20371;-76
2023/12/14 00:41:50;;;;;;;30.95;19.48;;;;;;;5.87;100.00;100967.19;6156260;23;20013;-75
2023/12/14 00:44:15;;;;;;;30.33;18.75;;;;;;;5.58;100.00;100935.06;6155909;23;20431;-75
2023/12/14 00:46:41;;;;;;;28.85;18.65;;;;;;;5.62;100.00;100952.84;6156164;23;20064;-75
2023/12/14 00:49:07;;;;;;;28.25;17.50;;;;;;;5.59;100.00;100958.06;6156171;23;20005;-77
2023/12/14 00:51:32;;;;;;;29.02;18.23;;;;;;;5.71;100.00;100984.94;6155595;23;20073;-76
2023/12/14 00:53:57;;;;;;;27.05;17.45;;;;;;;5.70;100.00;100989.22;6155824;23;20074;-76
2023/12/14 00:56:23;;;;;;;25.90;16.45;;;;;;;5.66;100.00;100999.66;6156301;23;20005;-75
2023/12/14 00:58:48;;;;;;;24.27;16.00;;;;;;;5.51;100.00;100970.38;6155894;23;20008;-75
2023/12/14 01:01:13;;;;;;;24.88;15.88;;;;;;;5.60;100.00;100995.59;6155997;23;20024;-75
2023/12/14 01:03:38;;;;;;;22.13;14.20;;;;;;;5.51;100.00;100998.53;6129284;23;20010;-75
2023/12/14 01:06:04;;;;;;;24.23;14.40;;;;;;;5.31;100.00;100978.81;6155693;23;20006;-76
2023/12/14 01:08:29;;;;;;;23.50;15.50;;;;;;;5.40;100.00;101014.28;6155623;23;20450;-76
2023/12/14 01:10:55;;;;;;;21.27;14.25;;;;;;;5.14;100.00;100976.91;6155882;23;20010;-76
2023/12/14 01:13:20;;;;;;;22.55;14.75;;;;;;;5.32;100.00;101008.66;6155935;23;20008;-76
2023/12/14 01:15:45;;;;;;;22.40;14.63;;;;;;;5.30;100.00;101007.84;6129114;23;20005;-78
2023/12/14 01:18:10;;;;;;;21.75;13.30;;;;;;;5.27;100.00;101015.66;6155961;23;20001;-79
2023/12/14 01:20:36;;;;;;;23.73;14.45;;;;;;;5.25;100.00;101026.88;6155576;23;20020;-78
2023/12/14 01:23:01;;;;;;;21.60;15.05;;;;;;;5.21;100.00;101031.28;6155944;23;20052;-79
2023/12/14 01:25:26;;;;;;;21.83;13.52;;;;;;;5.16;100.00;101028.88;6155522;23;20084;-79
2023/12/14 01:27:52;;;;;;;19.13;12.23;;;;;;;5.19;100.00;101044.09;6155709;23;20033;-79
2023/12/14 01:30:17;;;;;;;19.33;13.50;;;;;;;5.16;100.00;101057.03;6155639;23;20076;-79
2023/12/14 01:32:42;;;;;;;19.17;12.65;;;;;;;5.05;100.00;101043.78;6155889;23;20008;-79
2023/12/14 01:35:08;;;;;;;20.83;13.93;;;;;;;5.21;100.00;101063.69;6129317;23;20005;-79
2023/12/14 01:37:33;;;;;;;21.38;13.55;;;;;;;5.17;100.00;101060.41;6155570;23;20437;-79
2023/12/14 01:39:58;;;;;;;20.92;13.32;;;;;;;5.14;100.00;101058.00;6155425;23;20001;-78
2023/12/14 01:42:24;;;;;;;20.13;13.40;;;;;;;5.02;100.00;101043.91;6156026;23;20009;-78
2023/12/14 01:44:49;;;;;;;19.20;13.38;;;;;;;5.13;100.00;101062.28;6155719;23;20006;-78
2023/12/14 01:47:14;;;;;;;20.88;14.32;;;;;;;5.07;100.00;101062.47;6155287;23;20379;-79
2023/12/14 01:49:41;;;;;;;21.58;14.25;;;;;;;5.09;100.00;101067.53;6155839;23;20005;-78
2023/12/14 01:52:06;;;;;;;21.35;13.75;;;;;;;5.13;100.00;101085.31;6155328;23;20091;-79
2023/12/14 01:54:32;;;;;;;21.40;14.05;;;;;;;5.06;100.00;101083.84;6129192;23;20009;-79
2023/12/14 01:56:57;;;;;;;20.75;14.18;;;;;;;5.11;100.00;101099.03;6155641;23;20084;-79
2023/12/14 01:59:22;;;;;;;22.92;14.75;;;;;;;5.08;100.00;101106.84;6155816;23;20002;-79
2023/12/14 02:01:53;;;;;;;21.70;14.15;;;;;;;5.08;100.00;101106.84;6155380;23;20088;-79
2023/12/14 02:04:18;;;;;;;18.48;13.32;;;;;;;5.07;100.00;101111.13;6155408;23;20002;-79
2023/12/14 02:06:44;;;;;;;22.77;13.20;;;;;;;4.95;100.00;101098.75;6129137;23;20451;-76
2023/12/14 02:09:09;;;;;;;21.83;14.05;;;;;;;4.99;100.00;101109.72;6128760;23;20443;-78
2023/12/14 02:11:35;;;;;;;21.35;13.60;;;;;;;5.05;100.00;101118.03;6155459;23;20095;-77
2023/12/14 02:14:05;;;;;;;20.65;13.57;;;;;;;4.99;100.00;101125.06;6155591;23;20063;-79
2023/12/14 02:16:31;;;;;;;19.48;12.68;;;;;;;4.88;100.00;101116.03;6155323;23;20002;-77
2023/12/14 02:18:56;;;;;;;20.58;13.20;;;;;;;5.00;100.00;101144.66;6155193;23;20036;-78
2023/12/14 02:21:22;;;;;;;23.42;13.80;;;;;;;5.03;100.00;101142.84;6155367;23;20326;-77
2023/12/14 02:23:47;;;;;;;20.95;14.07;;;;;;;5.05;100.00;101143.63;6155429;23;20419;-79
2023/12/14 02:26:13;;;;;;;22.00;13.77;;;;;;;5.07;100.00;101158.91;6155345;23;20008;-78
2023/12/14 02:28:38;;;;;;;22.40;14.32;;;;;;;4.87;100.00;101129.72;6155406;23;19998;-78
2023/12/14 02:31:04;;;;;;;21.77;13.88;;;;;;;4.84;100.00;101126.44;6154948;23;20009;-78
2023/12/14 02:33:29;;;;;;;21.25;13.93;;;;;;;5.09;100.00;101167.38;6155144;23;20478;-79
2023/12/14 02:35:55;;;;;;;21.65;14.55;;;;;;;4.92;100.00;101139.81;6155266;23;20053;-76
2023/12/14 02:38:20;;;;;;;23.90;14.27;;;;;;;4.86;100.00;101133.19;6155290;23;20005;-78
2023/12/14 02:40:46;;;;;;;21.52;14.85;;;;;;;5.01;100.00;101164.22;6155378;23;20052;-79
2023/12/14 02:43:13;;;;;;;23.38;14.18;;;;;;;5.07;100.00;101185.34;6155374;23;20025;-79
2023/12/14 02:45:38;;;;;;;21.83;14.07;;;;;;;5.07;100.00;101187.91;6155610;23;20482;-78
2023/12/14 02:48:04;;;;;;;21.75;13.68;;;;;;;4.91;100.00;101173.94;6155225;23;20486;-79
2023/12/14 02:50:29;;;;;;;22.02;14.40;;;;;;;4.99;100.00;101191.63;6154728;23;20498;-78
2023/12/14 02:52:55;;;;;;;22.10;14.80;;;;;;;4.98;100.00;101198.47;6155365;23;20020;-77
2023/12/14 02:55:20;;;;;;;23.13;14.40;;;;;;;4.95;100.00;101198.56;6154979;23;20001;-77
2023/12/14 02:57:46;;;;;;;22.92;14.60;;;;;;;4.92;100.00;101205.50;6155054;23;20013;-77
2023/12/14 03:00:12;;;;;;;21.63;13.57;;;;;;;4.75;100.00;101185.59;6156496;23;20012;-79
2023/12/14 03:02:37;;;;;;;22.00;13.73;;;;;;;4.82;100.00;101205.81;6131216;23;20010;-76
2023/12/14 03:05:03;;;;;;;20.98;13.95;;;;;;;4.86;100.00;101227.03;6157113;23;20005;-77
2023/12/14 03:07:28;;;;;;;20.65;13.68;;;;;;;4.76;100.00;101211.13;6157479;23;20327;-76
2023/12/14 03:09:53;;;;;;;21.85;15.27;;;;;;;4.85;100.00;101231.31;6130121;23;20424;-77
2023/12/14 03:12:19;;;;;;;23.05;15.68;;;;;;;4.83;100.00;101230.53;6157225;23;20108;-76
2023/12/14 03:14:44;;;;;;;20.48;14.73;;;;;;;4.79;100.00;101236.59;6157222;23;20053;-76
2023/12/14 03:17:12;;;;;;;22.50;14.68;;;;;;;4.84;100.00;101233.91;6157549;23;20412;-77
2023/12/14 03:19:39;;;;;;;20.13;13.63;;;;;;;4.89;100.00;101232.88;6157171;23;20001;-76
2023/12/14 03:22:04;;;;;;;20.02;13.82;;;;;;;4.74;100.00;101200.13;6157062;23;20340;-77
2023/12/14 03:24:29;;;;;;;21.35;14.20;;;;;;;4.74;100.00;101218.03;6156822;23;20041;-76
2023/12/14 03:26:55;;;;;;;20.90;14.15;;;;;;;4.85;100.00;101238.97;6156590;23;20005;-76
2023/12/14 03:29:21;;;;;;;20.50;14.68;;;;;;;4.84;100.00;101246.72;6157246;23;20009;-77
2023/12/14 03:31:46;;;;;;;20.17;13.20;;;;;;;4.77;100.00;101250.34;6156764;23;20013;-74
2023/12/14 03:34:12;;;;;;;19.35;13.82;;;;;;;4.71;100.00;101235.19;6157115;23;20011;-76
2023/12/14 03:36:37;;;;;;;21.27;14.77;;;;;;;4.79;100.00;101241.72;6156661;23;20335;-76
2023/12/14 03:39:02;;;;;;;19.15;13.82;;;;;;;4.81;100.00;101247.63;6156796;23;20008;-76
2023/12/14 03:41:28;;;;;;;20.67;14.93;;;;;;;4.85;100.00;101256.06;6156821;23;20013;-77
2023/12/14 03:43:53;;;;;;;23.23;15.02;;;;;;;4.82;100.00;101253.59;6156717;23;20009;-77
2023/12/14 03:46:18;;;;;;;19.15;13.40;;;;;;;4.69;100.00;101232.69;6157004;23;20010;-76
2023/12/14 03:48:44;;;;;;;19.27;13.95;;;;;;;4.78;100.00;101252.00;6156806;23;20001;-75
2023/12/14 03:51:09;;;;;;;20.25;14.18;;;;;;;4.79;100.00;101262.19;6156388;23;20072;-76
2023/12/14 03:53:34;;;;;;;19.50;14.32;;;;;;;4.75;100.00;101260.63;6156823;23;20053;-74
2023/12/14 03:56:00;;;;;;;19.42;14.25;;;;;;;4.63;100.00;101258.47;6156837;23;20446;-76
2023/12/14 03:58:26;;;;;;;18.25;13.43;;;;;;;4.68;100.00;101278.78;6156881;23;20326;-76
2023/12/14 04:00:51;;;;;;;18.60;13.15;;;;;;;4.57;100.00;101262.03;6156630;23;20009;-75
2023/12/14 04:03:16;;;;;;;19.90;13.73;;;;;;;4.64;100.00;101278.03;6156841;23;20016;-76
2023/12/14 04:05:43;;;;;;;19.95;13.23;;;;;;;4.33;100.00;101221.91;6156668;23;20110;-77
2023/12/14 04:08:08;;;;;;;19.80;13.68;;;;;;;4.66;100.00;101278.00;6156364;23;20001;-76
2023/12/14 04:10:33;;;;;;;20.63;14.38;;;;;;;4.59;100.00;101269.66;6156026;23;20024;-76
2023/12/14 04:12:59;;;;;;;20.08;14.05;;;;;;;4.60;100.00;101279.84;6156783;23;20081;-80
2023/12/14 04:15:24;;;;;;;20.35;14.23;;;;;;;4.57;100.00;101274.00;6156878;23;19997;-78
2023/12/14 04:17:49;;;;;;;20.70;14.23;;;;;;;4.58;100.00;101281.63;6156276;23;20008;-76
2023/12/14 04:20:15;;;;;;;21.00;14.70;;;;;;;4.49;100.00;101273.38;6156358;23;20085;-77
2023/12/14 04:22:41;;;;;;;20.08;14.48;;;;;;;4.57;100.00;101294.47;6156303;23;20073;-79
2023/12/14 04:25:07;;;;;;;22.13;13.93;;;;;;;4.59;100.00;101298.63;6156387;23;20009;-78
2023/12/14 04:27:32;;;;;;;20.02;14.18;;;;;;;4.51;100.00;101294.63;6156273;23;20443;-79
2023/12/14 04:29:58;;;;;;;21.65;14.82;;;;;;;4.59;100.00;101311.41;6156309;23;20031;-78
2023/12/14 04:32:23;;;;;;;19.77;14.05;;;;;;;4.58;100.00;101317.41;6156262;23;20028;-77
2023/12/14 04:34:48;;;;;;;20.55;13.93;;;;;;;4.59;100.00;101323.38;6156064;23;20033;-79
2023/12/14 04:37:14;;;;;;;21.40;13.88;;;;;;;4.59;100.00;101323.38;6156093;23;20042;-78
2023/12/14 04:39:39;;;;;;;21.20;14.65;;;;;;;4.61;100.00;101334.38;6156624;23;20033;-80
2023/12/14 04:42:04;;;;;;;20.20;14.30;;;;;;;4.48;100.00;101307.53;6156183;23;20044;-77
2023/12/14 04:44:30;;;;;;;20.35;14.35;;;;;;;4.67;100.00;101347.00;6156573;23;20001;-77
2023/12/14 04:46:55;;;;;;;21.35;15.02;;;;;;;4.68;100.00;101355.53;6156210;23;20152;-77
2023/12/14 04:49:21;;;;;;;20.27;14.45;;;;;;;4.63;100.00;101355.66;6156065;23;20008;-77
2023/12/14 04:51:46;;;;;;;20.63;14.40;;;;;;;4.42;100.00;101323.03;6155683;23;20017;-77
2023/12/14 04:54:12;;;;;;;21.92;15.35;;;;;;;4.62;100.00;101356.53;6156217;23;20019;-78
2023/12/14 04:56:37;;;;;;;20.90;14.65;;;;;;;4.61;100.00;101354.84;6156318;23;20085;-78
2023/12/14 04:59:02;;;;;;;20.80;14.73;;;;;;;4.60;100.00;101361.69;6156057;23;20029;-78
2023/12/14 05:01:28;;;;;;;21.67;15.15;;;;;;;4.60;100.00;101363.41;6156053;23;20028;-78
2023/12/14 05:03:53;;;;;;;20.90;15.00;;;;;;;4.43;100.00;101337.53;6156128;23;20012;-78
2023/12/14 05:06:19;;;;;;;22.13;15.63;;;;;;;4.63;100.00;101377.84;6156116;23;20060;-78
2023/12/14 05:08:44;;;;;;;20.52;14.98;;;;;;;4.47;100.00;101364.66;6156049;23;20420;-78
2023/12/14 05:11:10;;;;;;;21.83;14.02;;;;;;;4.63;100.00;101399.16;6155938;23;20420;-80
2023/12/14 05:13:35;;;;;;;20.20;14.50;;;;;;;4.62;100.00;101397.44;6155801;23;20068;-80
2023/12/14 05:16:00;;;;;;;22.13;15.20;;;;;;;4.59;100.00;101402.66;6155912;23;20001;-80
2023/12/14 05:18:27;;;;;;;21.83;15.23;;;;;;;4.58;100.00;101390.75;6156003;23;20439;-78
2023/12/14 05:20:53;;;;;;;22.13;15.23;;;;;;;4.51;100.00;101379.88;6156132;23;20013;-77
2023/12/14 05:23:18;;;;;;;22.02;15.10;;;;;;;4.69;100.00;101419.44;6155421;23;20001;-77
2023/12/14 05:25:44;;;;;;;22.13;15.43;;;;;;;4.62;100.00;101412.81;6155594;23;20016;-77
2023/12/14 05:28:10;;;;;;;21.77;15.68;;;;;;;4.67;100.00;101420.34;6155938;23;20091;-77
2023/12/14 05:30:35;;;;;;;22.13;14.85;;;;;;;4.67;100.00;101428.88;6155652;23;20006;-78
2023/12/14 05:33:01;;;;;;;21.23;15.00;;;;;;;4.43;100.00;101393.78;6155458;23;20002;-78
2023/12/14 05:35:26;;;;;;;21.67;14.88;;;;;;;4.70;100.00;101435.59;6155726;23;20084;-77
2023/12/14 05:37:52;;;;;;;20.85;14.43;;;;;;;4.65;100.00;101443.44;6155577;23;20008;-78
2023/12/14 05:40:17;;;;;;;20.75;15.38;;;;;;;4.67;100.00;101444.22;6155798;23;20005;-78
2023/12/14 05:42:42;;;;;;;21.85;15.30;;;;;;;4.73;100.00;101456.84;6155575;23;20012;-78
2023/12/14 05:45:08;;;;;;;20.70;15.20;;;;;;;4.52;100.00;101427.59;6155738;23;20024;-78
2023/12/14 05:47:34;;;;;;;20.75;14.85;;;;;;;4.69;100.00;101465.47;6155821;23;20002;-77
2023/12/14 05:50:00;;;;;;;19.80;14.40;;;;;;;4.73;100.00;101479.03;6155448;23;20380;-78
2023/12/14 05:52:26;;;;;;;19.25;14.45;;;;;;;4.77;100.00;101484.00;6155195;23;20031;-78
2023/12/14 05:54:51;;;;;;;20.77;15.15;;;;;;;4.65;100.00;101466.44;6155445;23;20483;-78
2023/12/14 05:57:17;;;;;;;21.77;15.10;;;;;;;4.79;100.00;101491.63;6154987;23;20110;-77
2023/12/14 05:59:42;;;;;;;20.50;14.90;;;;;;;4.82;100.00;101506.94;6155319;23;20129;-78
2023/12/14 06:02:08;;;;;;;20.08;14.45;;;;;;;4.83;100.00;101509.44;6155900;23;20340;-78
2023/12/14 06:04:33;;;;;;;19.48;14.10;;;;;;;4.65;100.00;101494.59;6129418;23;20009;-78
2023/12/14 06:06:58;;;;;;;18.15;13.38;;;;;;;4.85;100.00;101517.06;6155697;23;20430;-77
2023/12/14 06:09:29;;;;;;;19.48;14.40;;;;;;;4.85;100.00;101517.06;6155613;23;20009;-77
2023/12/14 06:11:55;;;;;;;18.90;14.53;;;;;;;4.57;100.00;101473.50;6155468;23;20010;-78
2023/12/14 06:14:20;;;;;;;18.80;13.75;;;;;;;4.82;100.00;101517.16;6155742;23;20009;-79
2023/12/14 06:16:45;;;;;;;19.08;14.30;;;;;;;4.78;100.00;101513.81;6156025;23;20056;-78
2023/12/14 06:19:11;;;;;;;18.92;13.88;;;;;;;4.70;100.00;101504.69;6155589;23;20032;-78
2023/12/14 06:21:36;;;;;;;19.30;14.00;;;;;;;4.76;100.00;101523.28;6155606;23;20372;-78
2023/12/14 06:24:01;;;;;;;21.05;14.93;;;;;;;4.75;100.00;101520.75;6155536;23;20001;-77
2023/12/14 06:26:28;;;;;;;19.65;14.07;;;;;;;4.76;100.00;101532.66;6155415;23;20041;-78
2023/12/14 06:28:53;;;;;;;21.50;14.85;;;;;;;4.80;100.00;101547.88;6154876;23;20071;-78
2023/12/14 06:31:21;;;;;;;20.65;14.30;;;;;;;4.78;100.00;101546.25;6129055;23;20092;-78
2023/12/14 06:33:50;;;;;;;18.92;14.18;;;;;;;4.73;100.00;101554.06;6155414;23;20009;-77
2023/12/14 06:36:18;;;;;;;21.38;14.68;;;;;;;4.67;100.00;101549.09;6155310;23;20387;-77
2023/12/14 06:38:44;;;;;;;20.70;14.73;;;;;;;4.46;100.00;101516.44;6128187;23;20013;-79
2023/12/14 06:41:18;;;;;;;21.88;14.90;;;;;;;4.51;100.00;101533.31;6154891;23;20498;-77
2023/12/14 06:43:44;;;;;;;21.92;15.73;;;;;;;4.47;100.00;101529.19;6155120;23;20056;-80
2023/12/14 06:46:09;;;;;;;22.65;15.38;;;;;;;4.60;100.00;101550.13;6153549;23;20005;-76
2023/12/14 06:48:34;;;;;;;22.83;16.48;;;;;;;4.59;100.00;101548.47;6128568;23;20006;-78
2023/12/14 06:51:00;;;;;;;23.73;14.90;;;;;;;4.73;100.00;101566.03;6154387;23;20447;-76
2023/12/14 06:53:25;;;;;;;27.23;17.55;;;;;;;4.62;100.00;101548.38;6154846;23;20042;-73
2023/12/14 06:55:50;;;;;;;22.67;15.80;;;;;;;4.78;100.00;101570.13;6154543;23;20008;-75
2023/12/14 06:58:17;;;;;;;24.23;16.15;;;;;;;4.63;100.00;101565.44;6154794;23;20085;-76
2023/12/14 07:00:43;;;;;;;23.17;15.68;;;;;;;4.51;100.00;101553.78;6129197;23;20006;-78
2023/12/14 07:03:08;;;;;;;25.50;15.45;;;;;;;4.68;100.00;101596.84;6155197;23;20002;-76
2023/12/14 07:05:33;;;;;;;23.95;16.27;;;;;;;4.66;100.00;101598.59;6154583;23;20068;-76
2023/12/14 07:07:58;;;;;;;22.88;15.95;;;;;;;4.61;100.00;101593.59;6154898;23;20012;-76
2023/12/14 07:10:24;;;;;;;25.55;16.27;;;;;;;4.53;100.00;101592.13;6154858;23;20009;-84
2023/12/14 07:12:50;;;;;;;24.33;15.45;;;;;;;4.36;100.00;101577.19;6154864;23;20108;-81
2023/12/14 07:15:15;;;;;;;21.13;14.40;;;;;;;4.55;100.00;101610.81;6154730;23;20031;-80
2023/12/14 07:17:41;;;;;;;21.38;14.55;;;;;;;4.56;100.00;101617.63;6154959;23;20125;-83
2023/12/14 07:20:07;;;;;;;21.67;14.25;;;;;;;4.57;100.00;101625.25;6154931;23;20012;-81
2023/12/14 07:22:32;;;;;;;21.23;13.32;;;;;;;4.59;100.00;101633.72;6155040;23;20328;-80
2023/12/14 07:24:58;;;;;;;22.73;13.75;;;;;;;4.34;100.00;101596.88;6154911;23;20005;-77
2023/12/14 07:27:23;;;;;;;25.40;14.18;;;;;;;4.43;100.00;101624.75;6154867;23;20081;-81
2023/12/14 07:29:48;;;;;;;19.83;12.63;;;;;;;4.57;100.00;101655.09;6154892;23;20006;-80
2023/12/14 07:32:14;;;;;;;17.95;12.00;;;;;;;4.35;100.00;101628.38;6154923;23;20010;-84
2023/12/14 07:34:39;;;;;;;17.45;11.95;;;;;;;4.54;100.00;101666.25;6154480;23;20002;-79
2023/12/14 07:37:05;;;;;;;22.55;12.55;;;;;;;4.48;100.00;101651.06;6154470;23;20001;-87
2023/12/14 07:39:31;;;;;;;18.85;11.80;;;;;;;4.54;100.00;101665.41;6154706;23;20012;-86
2023/12/14 07:41:56;;;;;;;18.48;11.45;;;;;;;4.37;100.00;101641.97;6154979;23;20045;-82
2023/12/14 07:44:22;;;;;;;16.77;10.63;;;;;;;4.39;100.00;101642.75;6154539;23;20371;-83
2023/12/14 07:46:48;;;;;;;18.38;11.73;;;;;;;4.47;100.00;101664.72;6156440;23;20068;-81
2023/12/14 07:49:13;;;;;;;16.67;10.80;;;;;;;4.34;100.00;101654.84;6156845;23;20033;-81
2023/12/14 07:51:39;;;;;;;16.42;11.25;;;;;;;4.34;100.00;101658.22;6156523;23;20107;-87
2023/12/14 07:54:04;;;;;;;15.32;10.07;;;;;;;4.39;100.00;101665.78;6129679;23;20009;-77
2023/12/14 07:56:29;;;;;;;18.73;11.93;;;;;;;4.56;100.00;101695.19;6156506;23;20005;-79
2023/12/14 07:58:55;;;;;;;16.38;10.80;;;;;;;4.60;100.00;101694.22;6156378;23;20032;-77
2023/12/14 08:01:20;;;;;;;16.00;10.32;;;;;;;4.61;100.00;101703.56;6156458;23;20002;-77
2023/12/14 08:03:46;;;;;;;15.02;10.65;;;;;;;4.59;100.00;101707.06;6156464;23;20005;-76
2023/12/14 08:06:11;;;;;;;16.75;10.85;;;;;;;4.57;100.00;101708.81;6156315;23;20008;-78
2023/12/14 08:08:37;;;;;;;16.40;9.95;;;;;;;4.53;100.00;101708.06;6156530;23;20005;-76
2023/12/14 08:11:03;;;;;;;14.20;9.65;;;;;;;4.44;100.00;101707.44;6156612;23;20013;-78
2023/12/14 08:13:29;;;;;;;15.55;9.65;;;;;;;4.47;100.00;101725.25;6156499;23;20076;-78
2023/12/14 08:15:55;;;;;;;15.00;10.45;;;;;;;4.40;100.00;101705.81;6156232;23;20005;-77
2023/12/14 08:18:22;;;;;;;14.98;10.70;;;;;;;4.46;100.00;101724.41;6154882;23;20064;-77
2023/12/14 08:20:48;;;;;;;15.73;10.63;;;;;;;4.42;100.00;101716.84;6130672;23;20014;-79
2023/12/14 08:23:13;;;;;;;16.65;10.55;;;;;;;4.48;100.00;101727.78;6156997;23;20052;-77
2023/12/14 08:25:39;;;;;;;16.15;10.73;;;;;;;4.53;100.00;101725.13;6156215;23;20059;-75
2023/12/14 08:28:04;;;;;;;15.20;10.15;;;;;;;4.52;100.00;101738.75;6156144;23;20009;-75
2023/12/14 08:30:30;;;;;;;16.00;10.40;;;;;;;4.46;100.00;101738.94;6156019;23;20400;-75
2023/12/14 08:32:55;;;;;;;15.23;9.93;;;;;;;4.56;100.00;101754.03;6156259;23;20012;-77
2023/12/14 08:35:21;;;;;;;16.55;10.63;;;;;;;4.39;100.00;101734.81;6156452;23;20013;-77
2023/12/14 08:37:47;;;;;;;15.90;10.25;;;;;;;4.53;100.00;101766.06;6156308;23;20013;-80
2023/12/14 08:40:12;;;;;;;15.15;10.02;;;;;;;4.53;100.00;101768.63;6129684;23;20511;-77
2023/12/14 08:42:37;;;;;;;14.38;9.90;;;;;;;4.54;100.00;101777.97;6155980;23;20037;-76
2023/12/14 08:45:03;;;;;;;15.30;10.63;;;;;;;4.55;100.00;101783.03;6156013;23;20013;-77
2023/12/14 08:47:28;;;;;;;15.40;10.52;;;;;;;4.56;100.00;101783.88;6156005;23;20009;-76
2023/12/14 08:49:53;;;;;;;15.18;9.82;;;;;;;4.56;100.00;101794.94;6156237;23;20388;-74
2023/12/14 08:52:19;;;;;;;16.35;10.45;;;;;;;4.51;100.00;101794.19;6155630;23;20040;-77
2023/12/14 08:54:44;;;;;;;12.57;8.52;;;;;;;4.43;100.00;101780.75;6156248;23;20013;-75
2023/12/14 08:57:10;;;;;;;14.50;9.50;;;;;;;4.40;100.00;101778.25;6155774;23;20416;-75
2023/12/14 08:59:35;;;;;;;12.40;9.00;;;;;;;4.24;100.00;101744.53;6156165;23;20006;-80
2023/12/14 09:02:01;;;;;;;13.85;9.68;;;;;;;4.54;100.00;101790.75;6155808;23;20428;-76
2023/12/14 09:04:26;;;;;;;12.80;8.93;;;;;;;4.42;100.00;101783.31;6130014;23;20009;-75
2023/12/14 09:06:52;;;;;;;13.43;8.77;;;;;;;4.39;100.00;101789.34;6155966;23;20005;-76
2023/12/14 09:09:18;;;;;;;13.25;9.75;;;;;;;4.51;100.00;101808.69;6156042;23;20092;-73
2023/12/14 09:11:44;;;;;;;13.13;9.18;;;;;;;4.47;100.00;101823.28;6155651;23;20435;-77
2023/12/14 09:14:09;;;;;;;14.50;9.55;;;;;;;4.48;100.00;101814.75;6156036;23;20013;-77
2023/12/14 09:16:34;;;;;;;14.02;9.13;;;;;;;4.45;100.00;101824.19;6155645;23;19997;-78
2023/12/14 09:19:00;;;;;;;14.82;9.85;;;;;;;4.44;100.00;101820.81;6155799;23;20007;-82
2023/12/14 09:21:25;;;;;;;12.98;9.60;;;;;;;4.54;100.00;101845.31;6156111;23;20007;-75
2023/12/14 09:23:53;;;;;;;12.63;9.50;;;;;;;4.57;100.00;101854.63;6155810;23;20434;-76
2023/12/14 09:26:18;;;;;;;13.13;9.27;;;;;;;4.57;100.00;101862.28;6155850;23;20008;-79
2023/12/14 09:28:43;;;;;;;14.05;9.60;;;;;;;4.53;100.00;101861.53;6155685;23;20009;-76
2023/12/14 09:31:09;;;;;;;13.00;9.00;;;;;;;4.54;100.00;101868.31;6155464;23;20005;-76
2023/12/14 09:33:34;;;;;;;14.10;9.68;;;;;;;4.50;100.00;101869.25;6155699;23;20009;-77
2023/12/14 09:35:59;;;;;;;12.77;9.05;;;;;;;4.52;100.00;101872.63;6155559;23;20080;-79
2023/12/14 09:38:25;;;;;;;11.73;8.38;;;;;;;4.56;100.00;101879.38;6155846;23;20088;-77
2023/12/14 09:40:50;;;;;;;12.93;9.27;;;;;;;4.50;100.00;101879.47;6155849;23;20072;-75
2023/12/14 09:43:15;;;;;;;12.82;9.05;;;;;;;4.51;100.00;101891.38;6155542;23;20005;-77
2023/12/14 09:45:44;;;;;;;13.55;9.98;;;;;;;4.38;100.00;101866.97;6155646;23;20459;-77
2023/12/14 09:48:11;;;;;;;12.57;8.95;;;;;;;4.54;100.00;101890.50;6155826;23;20037;-76
2023/12/14 09:50:39;;;;;;;12.43;8.65;;;;;;;4.57;100.00;101905.78;6155751;23;20021;-76
2023/12/14 09:53:05;;;;;;;12.77;9.30;;;;;;;4.49;100.00;101895.72;6155403;23;20339;-75
2023/12/14 09:55:31;;;;;;;13.32;8.80;;;;;;;4.56;100.00;101909.22;6155691;23;20006;-75
2023/12/14 09:57:56;;;;;;;13.38;9.63;;;;;;;4.53;100.00;101912.69;6155426;23;20012;-75
2023/12/14 10:00:39;;;;;;;13.88;8.88;;;;;;;4.22;100.00;101868.13;6155415;23;20028;-76
2023/12/14 10:03:25;;;;;;;13.27;9.35;;;;;;;4.59;100.00;101925.34;6155292;23;20005;-76
2023/12/14 10:05:52;;;;;;;12.57;8.77;;;;;;;4.61;100.00;101931.25;6155471;23;20005;-85
2023/12/14 10:08:18;;;;;;;12.90;9.30;;;;;;;4.68;100.00;101941.38;6155541;23;20013;-80
2023/12/14 10:10:48;;;;;;;13.82;8.93;;;;;;;4.70;100.00;101943.03;6155392;23;20006;-84
2023/12/14 10:13:14;;;;;;;13.70;8.98;;;;;;;4.74;100.00;101947.22;6155381;23;20319;-82
2023/12/14 10:15:43;;;;;;;14.50;8.98;;;;;;;4.72;100.00;101951.53;6155655;23;20081;-84
2023/12/14 10:18:09;;;;;;;13.50;9.23;;;;;;;4.49;100.00;101920.44;6155311;23;20021;-78
2023/12/14 10:20:34;;;;;;;11.40;8.10;;;;;;;4.61;100.00;101953.44;6155601;23;20048;-79
2023/12/14 10:22:59;;;;;;;12.73;8.75;;;;;;;4.64;100.00;101961.06;6155420;23;20005;-81
2023/12/14 10:25:26;;;;;;;12.90;8.32;;;;;;;4.59;100.00;101967.97;6155403;23;20005;-80
2023/12/14 10:27:54;;;;;;;12.05;8.52;;;;;;;4.57;100.00;101968.03;6155019;23;20003;-81
2023/12/14 10:30:19;;;;;;;12.90;8.80;;;;;;;4.67;100.00;101971.22;6155202;23;20065;-84
2023/12/14 10:32:48;;;;;;;12.63;8.23;;;;;;;4.40;100.00;101912.94;6155163;23;20028;-81
2023/12/14 10:35:16;;;;;;;13.10;8.27;;;;;;;4.72;100.00;101953.22;6155098;23;20008;-84
2023/12/14 10:37:42;;;;;;;12.20;7.95;;;;;;;4.70;100.00;101937.91;6155702;23;20009;-82
2023/12/14 10:40:10;;;;;;;12.82;8.77;;;;;;;4.63;100.00;101909.94;6155601;23;20001;-82
2023/12/14 10:42:36;;;;;;;11.93;8.40;;;;;;;5.07;100.00;101968.69;6155632;23;20029;-85
2023/12/14 10:45:03;;;;;;;12.27;8.10;;;;;;;5.12;100.00;101968.59;6155287;23;20005;-81
2023/12/14 10:47:29;;;;;;;14.48;8.80;;;;;;;5.12;100.00;101971.16;6155428;23;20032;-79
2023/12/14 10:49:56;;;;;;;12.00;8.65;;;;;;;5.01;100.00;101948.31;6155080;23;20344;-81
2023/12/14 10:52:24;;;;;;;13.07;8.20;;;;;;;5.23;100.00;101981.16;6154966;23;20017;-84
2023/12/14 10:54:58;;;;;;;12.55;8.27;;;;;;;5.01;100.00;101937.25;6155271;23;20001;-86
2023/12/14 10:57:23;;;;;;;10.65;7.97;;;;;;;5.25;100.00;101985.38;6155405;23;20002;-83
2023/12/14 10:59:49;;;;;;;11.75;8.40;;;;;;;5.26;100.00;101984.47;6155378;23;20010;-83
2023/12/14 11:02:15;;;;;;;12.07;8.27;;;;;;;4.93;100.00;101937.44;6155094;23;20006;-82
2023/12/14 11:04:59;;;;;;;12.00;8.25;;;;;;;5.07;100.00;101962.72;6155432;23;20056;-82